Time;durP1;ratioP1;P1;durP2;ratioP2;P2;SDS_P1;SDS_P2;PMS_P1;PMS_P2;Temp;Humidity;BMP_temperature;BMP_pressure;BME280_temperature;BME280_humidity;BME280_pressure;Samples;Min_cycle;Max_cycle;Signal;HPM_P1;HPM_P2
2022/03/10 00:01:22;;;;;;;37.93;14.37;;;;;;;16.42;26.79;102366.84;5114784;27;20070;-72
2022/03/10 00:03:48;;;;;;;37.20;15.17;;;;;;;15.83;27.46;102368.25;5113787;27;20019;-72
2022/03/10 00:06:13;;;;;;;36.77;15.57;;;;;;;15.80;27.80;102370.91;5114811;27;20095;-72
2022/03/10 00:08:39;;;;;;;42.30;16.17;;;;;;;16.27;27.07;102359.94;5115480;27;20016;-72
2022/03/10 00:11:04;;;;;;;40.10;16.33;;;;;;;15.10;28.33;102369.53;5114319;27;20027;-72
2022/03/10 00:13:31;;;;;;;37.43;16.60;;;;;;;16.27;26.98;102365.22;5116353;27;20065;-72
2022/03/10 00:15:57;;;;;;;34.70;14.67;;;;;;;16.08;27.25;102368.94;5113733;27;20027;-72
2022/03/10 00:18:23;;;;;;;33.73;14.63;;;;;;;15.84;27.30;102372.63;5114123;27;20079;-72
2022/03/10 00:20:48;;;;;;;43.73;15.97;;;;;;;16.07;27.03;102372.44;5133521;27;20026;-72
2022/03/10 00:23:13;;;;;;;41.80;16.97;;;;;;;16.18;27.04;102367.06;5111131;27;20091;-72
2022/03/10 00:25:39;;;;;;;43.83;16.43;;;;;;;15.89;27.17;102376.09;5132614;27;20474;-72
2022/03/10 00:28:04;;;;;;;35.93;15.17;;;;;;;16.14;26.99;102381.19;5133230;27;20027;-72
2022/03/10 00:30:30;;;;;;;42.03;16.80;;;;;;;15.85;27.54;102364.69;5111544;27;20031;-72
2022/03/10 00:32:55;;;;;;;41.50;15.67;;;;;;;16.10;27.51;102368.03;5113809;27;20152;-72
2022/03/10 00:35:22;;;;;;;37.70;15.83;;;;;;;16.24;26.89;102362.63;5113959;27;20030;-72
2022/03/10 00:37:48;;;;;;;39.07;15.43;;;;;;;14.71;28.89;102360.91;5113428;27;20023;-72
2022/03/10 00:40:15;;;;;;;39.67;16.20;;;;;;;15.01;28.59;102364.28;5130415;27;20031;-72
2022/03/10 00:42:41;;;;;;;38.90;16.23;;;;;;;14.90;28.71;102358.19;5115082;27;20422;-72
2022/03/10 00:45:07;;;;;;;44.03;17.30;;;;;;;15.20;28.47;102349.28;5113105;27;20138;-71
2022/03/10 00:47:33;;;;;;;39.40;15.63;;;;;;;15.24;28.23;102360.69;5114558;27;20447;-72
2022/03/10 00:49:58;;;;;;;36.57;15.00;;;;;;;15.02;28.62;102365.19;5113379;27;20023;-72
2022/03/10 00:52:24;;;;;;;38.27;16.83;;;;;;;15.62;28.01;102362.22;5113643;27;20341;-72
2022/03/10 00:54:49;;;;;;;38.23;15.70;;;;;;;16.39;27.26;102355.44;5132827;27;20085;-72
2022/03/10 00:57:15;;;;;;;36.23;16.27;;;;;;;16.22;26.78;102359.09;5112626;27;20031;-72
2022/03/10 00:59:40;;;;;;;37.40;15.70;;;;;;;16.49;26.74;102351.81;5129206;27;20027;-72
2022/03/10 01:02:05;;;;;;;35.43;14.23;;;;;;;16.28;27.34;102366.97;5112215;27;20019;-72
2022/03/10 01:04:31;;;;;;;37.30;15.40;;;;;;;16.07;27.71;102370.69;5113007;27;20019;-72
2022/03/10 01:06:56;;;;;;;33.50;14.57;;;;;;;16.01;27.91;102365.47;5113051;27;20478;-72
2022/03/10 01:09:21;;;;;;;32.47;14.57;;;;;;;16.07;28.15;102365.44;5113624;27;20019;-72
2022/03/10 01:11:47;;;;;;;36.03;15.37;;;;;;;16.11;27.89;102367.16;5114002;27;20106;-72
2022/03/10 01:14:12;;;;;;;37.60;15.73;;;;;;;15.84;27.96;102372.63;5131232;27;20124;-72
2022/03/10 01:16:38;;;;;;;33.77;14.10;;;;;;;15.86;28.14;102365.59;5114488;27;20072;-72
2022/03/10 01:19:04;;;;;;;34.93;14.53;;;;;;;15.89;28.12;102360.28;5112826;27;20012;-72
2022/03/10 01:21:29;;;;;;;34.53;14.23;;;;;;;15.61;28.80;102355.19;5113075;27;20074;-72
2022/03/10 01:23:54;;;;;;;38.97;15.97;;;;;;;15.69;29.51;102358.66;5111594;27;20051;-73
2022/03/10 01:26:20;;;;;;;34.23;15.77;;;;;;;16.07;28.25;102365.44;5113338;27;20042;-72
2022/03/10 01:28:45;;;;;;;32.30;14.50;;;;;;;15.66;28.80;102358.69;5132225;27;20295;-72
2022/03/10 01:31:10;;;;;;;35.07;15.73;;;;;;;15.59;29.04;102362.22;5112372;27;20731;-72
2022/03/10 01:33:36;;;;;;;33.27;14.63;;;;;;;15.55;28.38;102360.50;5111435;27;20034;-72
2022/03/10 01:36:01;;;;;;;38.83;16.10;;;;;;;15.58;28.31;102361.38;5113160;27;20038;-72
2022/03/10 01:38:27;;;;;;;37.20;15.37;;;;;;;15.59;28.31;102363.13;5113481;27;20015;-72
2022/03/10 01:40:52;;;;;;;35.97;15.97;;;;;;;14.71;29.45;102360.00;5112124;27;20019;-72
2022/03/10 01:43:17;;;;;;;41.37;16.17;;;;;;;14.55;30.02;102364.44;5112178;27;20023;-72
2022/03/10 01:45:43;;;;;;;39.53;14.67;;;;;;;14.03;30.52;102371.47;5113362;27;20422;-72
2022/03/10 01:48:08;;;;;;;41.97;18.17;;;;;;;14.41;30.16;102365.31;5111917;27;20072;-71
2022/03/10 01:50:34;;;;;;;35.27;16.03;;;;;;;14.12;31.15;102367.97;5113785;27;20380;-72
2022/03/10 01:53:01;;;;;;;41.17;16.50;;;;;;;14.71;29.87;102360.91;5113510;27;20035;-72
2022/03/10 01:55:27;;;;;;;39.57;16.30;;;;;;;14.53;29.95;102366.19;5128713;27;20027;-72
2022/03/10 01:57:52;;;;;;;40.83;16.13;;;;;;;14.01;30.98;102365.38;5112079;27;20026;-72
2022/03/10 02:00:17;;;;;;;38.30;15.60;;;;;;;13.63;31.80;102363.56;5109924;27;20028;-72
2022/03/10 02:02:43;;;;;;;41.73;16.43;;;;;;;13.60;31.65;102360.97;5113200;27;20075;-72
2022/03/10 02:05:09;;;;;;;38.70;14.90;;;;;;;13.91;31.49;102366.22;5129729;27;20050;-72
2022/03/10 02:10:18;;;;;;;42.70;14.47;;;;;;;14.10;31.11;102350.47;5127797;27;20080;-72
2022/03/10 02:12:50;;;;;;;39.17;15.87;;;;;;;13.47;32.29;102359.16;5112423;27;20019;-73
2022/03/10 02:18:04;;;;;;;37.80;14.67;;;;;;;14.78;30.25;102352.97;5131980;27;20034;-72
2022/03/10 02:20:30;;;;;;;38.10;15.80;;;;;;;15.35;29.18;102350.97;5110561;27;20454;-72
2022/03/10 02:22:56;;;;;;;36.87;14.80;;;;;;;14.86;30.04;102351.19;5110462;27;20058;-71
2022/03/10 02:25:23;;;;;;;36.80;16.90;;;;;;;15.29;29.79;102355.38;5129182;27;20046;-72
2022/03/10 02:27:50;;;;;;;36.77;15.87;;;;;;;14.23;30.94;102353.09;5131708;27;20055;-72
2022/03/10 02:30:16;;;;;;;36.77;15.03;;;;;;;14.05;31.20;102363.59;5129301;27;20019;-72
2022/03/10 02:32:42;;;;;;;36.40;15.23;;;;;;;14.49;30.80;102360.03;5130691;27;20025;-72
2022/03/10 02:35:08;;;;;;;37.73;16.07;;;;;;;14.07;31.47;102356.59;5110512;27;20470;-72
2022/03/10 02:37:33;;;;;;;40.43;15.70;;;;;;;14.39;30.84;102358.31;5112161;28;20019;-72
2022/03/10 02:39:58;;;;;;;43.43;16.87;;;;;;;13.71;32.20;102363.56;5112437;27;20022;-72
2022/03/10 02:42:24;;;;;;;36.00;14.13;;;;;;;13.61;32.25;102349.53;5110934;28;20107;-72
2022/03/10 02:44:49;;;;;;;33.40;14.13;;;;;;;13.58;32.26;102358.28;5109679;28;20092;-72
2022/03/10 02:47:16;;;;;;;38.87;16.43;;;;;;;14.75;30.41;102351.22;5111745;28;20113;-72
2022/03/10 02:49:42;;;;;;;37.97;15.20;;;;;;;14.26;30.97;102352.22;5111867;28;20026;-72
2022/03/10 02:52:09;;;;;;;33.60;14.57;;;;;;;14.27;31.09;102359.19;5110972;28;20027;-72
2022/03/10 02:54:34;;;;;;;34.20;13.87;;;;;;;13.73;31.97;102373.22;5130406;28;20031;-72
2022/03/10 02:57:00;;;;;;;33.80;14.97;;;;;;;14.85;30.28;102367.88;5128699;28;20134;-72
2022/03/10 02:59:26;;;;;;;37.70;14.87;;;;;;;14.80;30.28;102365.25;5128176;27;20106;-73
2022/03/10 03:01:56;;;;;;;35.47;15.20;;;;;;;14.68;30.43;102376.69;5105296;28;20019;-72
2022/03/10 03:04:25;;;;;;;41.00;16.33;;;;;;;14.66;30.57;102367.03;5113154;27;20046;-72
2022/03/10 03:06:50;;;;;;;36.27;15.30;;;;;;;13.40;32.67;102374.91;5117572;27;20153;-72
2022/03/10 03:09:15;;;;;;;38.70;15.63;;;;;;;14.46;30.79;102369.69;5115645;27;20035;-72
2022/03/10 03:11:41;;;;;;;36.97;14.87;;;;;;;13.97;31.54;102375.88;5116252;27;20027;-72
2022/03/10 03:14:06;;;;;;;42.57;15.30;;;;;;;13.30;33.09;102388.84;5115748;27;20037;-72
2022/03/10 03:16:31;;;;;;;33.20;15.93;;;;;;;14.02;31.67;102385.50;5115433;27;20038;-72
2022/03/10 03:18:57;;;;;;;31.53;14.77;;;;;;;13.18;33.33;102387.06;5099618;27;20031;-71
2022/03/10 03:21:23;;;;;;;40.43;15.07;;;;;;;13.34;33.35;102385.38;5116525;27;20034;-72
2022/03/10 03:23:49;;;;;;;41.50;15.77;;;;;;;13.05;33.47;102386.13;5115159;27;20506;-72
2022/03/10 03:26:16;;;;;;;38.73;15.00;;;;;;;12.67;34.59;102386.81;5133327;27;20031;-72
2022/03/10 03:28:42;;;;;;;42.40;16.60;;;;;;;13.84;32.56;102388.13;5134401;27;20466;-72
2022/03/10 03:31:09;;;;;;;36.87;15.67;;;;;;;13.49;32.90;102383.66;5113996;27;20015;-72
2022/03/10 03:33:34;;;;;;;35.17;14.13;;;;;;;13.17;33.62;102392.31;5114562;27;20050;-72
2022/03/10 03:36:00;;;;;;;35.93;15.10;;;;;;;13.89;32.71;102389.88;5114541;27;20486;-72
2022/03/10 03:38:25;;;;;;;37.23;16.23;;;;;;;12.81;34.03;102393.88;5131538;27;20015;-72
2022/03/10 03:40:53;;;;;;;39.80;15.50;;;;;;;13.13;33.95;102386.16;5115693;27;20023;-72
2022/03/10 03:43:18;;;;;;;42.30;15.23;;;;;;;13.73;32.95;102388.97;5133051;27;20027;-72
2022/03/10 03:45:44;;;;;;;37.77;15.67;;;;;;;13.95;32.31;102393.41;5114799;27;20080;-73
2022/03/10 03:48:09;;;;;;;37.83;15.13;;;;;;;13.67;32.66;102399.50;5113949;27;20096;-72
2022/03/10 03:50:35;;;;;;;42.97;16.97;;;;;;;13.96;32.26;102400.38;5115837;27;20029;-72
2022/03/10 03:53:00;;;;;;;38.83;15.33;;;;;;;13.89;32.38;102396.91;5115777;27;20023;-72
2022/03/10 03:55:27;;;;;;;36.43;15.00;;;;;;;12.46;34.91;102405.00;5111891;27;20043;-72
2022/03/10 03:57:52;;;;;;;39.63;16.33;;;;;;;12.70;34.59;102405.19;5131916;27;20031;-72
2022/03/10 04:00:18;;;;;;;29.57;13.60;;;;;;;11.56;35.94;102412.03;5113329;27;20138;-72
2022/03/10 04:02:45;;;;;;;36.47;15.67;;;;;;;13.19;33.67;102406.31;5113984;27;20027;-72
2022/03/10 04:05:10;;;;;;;42.27;15.90;;;;;;;13.72;32.79;102410.91;5133340;27;20114;-72
2022/03/10 04:07:36;;;;;;;42.13;15.27;;;;;;;12.01;35.61;102409.91;5133952;27;20463;-72
2022/03/10 04:10:05;;;;;;;37.43;15.37;;;;;;;12.59;34.69;102406.00;5114249;27;20032;-72
2022/03/10 04:12:32;;;;;;;37.90;16.57;;;;;;;13.56;32.93;102409.13;5114078;27;20027;-72
2022/03/10 04:14:57;;;;;;;35.50;14.93;;;;;;;13.47;33.15;102409.06;5133608;27;20068;-72
2022/03/10 04:17:23;;;;;;;38.40;15.50;;;;;;;12.57;34.10;102406.00;5132732;27;20031;-72
2022/03/10 04:19:48;;;;;;;36.67;15.87;;;;;;;12.73;34.13;102410.47;5114837;27;20033;-72
2022/03/10 04:22:14;;;;;;;34.00;14.90;;;;;;;12.82;33.85;102417.50;5113608;27;20030;-72
2022/03/10 04:24:39;;;;;;;42.43;16.73;;;;;;;13.41;33.12;102417.81;5130727;27;20079;-72
2022/03/10 04:27:05;;;;;;;45.77;16.53;;;;;;;12.76;34.22;102421.84;5113226;27;20386;-72
2022/03/10 04:29:30;;;;;;;38.77;15.40;;;;;;;12.67;33.92;102422.66;5132212;27;20399;-72
2022/03/10 04:31:55;;;;;;;38.40;14.87;;;;;;;12.97;33.71;102427.22;5131682;27;20446;-72
2022/03/10 04:34:21;;;;;;;39.80;16.13;;;;;;;13.81;32.30;102423.16;5114976;27;20550;-72
2022/03/10 04:36:46;;;;;;;41.07;15.73;;;;;;;13.38;32.87;102428.28;5114612;27;20068;-72
2022/03/10 04:39:11;;;;;;;40.63;15.97;;;;;;;13.22;33.19;102422.09;5114926;27;20054;-72
2022/03/10 04:41:37;;;;;;;43.07;16.93;;;;;;;12.59;34.41;102426.97;5132571;27;20019;-72
2022/03/10 04:44:03;;;;;;;35.00;15.97;;;;;;;12.12;35.50;102423.13;5129923;27;20106;-72
2022/03/10 04:46:29;;;;;;;36.23;15.23;;;;;;;12.42;34.63;102426.84;5114568;27;20121;-72
2022/03/10 04:48:54;;;;;;;38.47;16.33;;;;;;;13.47;32.60;102430.09;5111365;27;20018;-72
2022/03/10 04:51:20;;;;;;;40.40;16.30;;;;;;;13.04;33.49;102420.25;5113802;27;20023;-72
2022/03/10 04:53:46;;;;;;;39.10;16.13;;;;;;;12.46;34.73;102423.38;5113453;27;20016;-72
2022/03/10 04:56:11;;;;;;;33.73;14.33;;;;;;;13.35;32.98;102415.13;5095991;27;20091;-72
2022/03/10 04:58:37;;;;;;;38.03;17.27;;;;;;;11.68;35.88;102422.66;5110132;27;20023;-71
2022/03/10 05:01:02;;;;;;;37.77;16.23;;;;;;;11.70;36.13;102414.81;5114082;27;20026;-72
2022/03/10 05:03:27;;;;;;;37.30;16.93;;;;;;;11.92;35.65;102415.91;5106219;27;20027;-72
2022/03/10 05:05:53;;;;;;;36.70;15.27;;;;;;;11.35;36.45;102420.53;5113843;27;20019;-71
2022/03/10 05:08:18;;;;;;;36.37;14.07;;;;;;;10.72;37.84;102414.47;5132452;27;20102;-72
2022/03/10 05:10:43;;;;;;;43.00;17.83;;;;;;;11.94;35.82;102403.75;5112556;27;20027;-72
2022/03/10 05:13:09;;;;;;;43.57;15.83;;;;;;;11.76;35.58;102403.50;5132368;27;20033;-72
2022/03/10 05:15:34;;;;;;;41.63;16.13;;;;;;;11.63;35.90;102413.00;5132588;27;20114;-73
2022/03/10 05:18:02;;;;;;;35.87;15.70;;;;;;;11.37;36.43;102410.94;5111850;27;20044;-72
2022/03/10 05:20:29;;;;;;;40.13;16.03;;;;;;;11.67;35.94;102405.16;5113703;27;20030;-72
2022/03/10 05:22:57;;;;;;;41.43;17.53;;;;;;;11.98;35.72;102405.53;5112540;27;20087;-72
2022/03/10 05:25:25;;;;;;;44.53;15.33;;;;;;;11.64;36.07;102407.75;5109851;27;20444;-72
2022/03/10 05:27:51;;;;;;;41.20;15.63;;;;;;;10.94;37.77;102415.66;5114408;27;20042;-72
2022/03/10 05:30:18;;;;;;;45.83;15.73;;;;;;;12.49;34.79;102410.31;5114154;27;20110;-72
2022/03/10 05:32:45;;;;;;;39.53;16.47;;;;;;;12.08;35.42;102410.84;5111616;27;20023;-72
2022/03/10 05:35:14;;;;;;;34.60;14.17;;;;;;;12.41;34.78;102417.25;5113497;27;20041;-72
2022/03/10 05:37:41;;;;;;;36.93;15.43;;;;;;;12.13;35.28;102419.63;5114974;27;20027;-72
2022/03/10 05:40:11;;;;;;;37.57;14.70;;;;;;;11.14;37.38;102418.50;5130555;27;20163;-72
2022/03/10 05:42:41;;;;;;;39.13;16.07;;;;;;;11.75;36.12;102410.50;5112732;27;20023;-72
2022/03/10 05:45:08;;;;;;;41.43;15.97;;;;;;;12.12;35.02;102417.88;5107546;27;20042;-71
2022/03/10 05:47:35;;;;;;;36.70;14.47;;;;;;;12.04;35.56;102421.28;5130597;27;20048;-72
2022/03/10 05:50:02;;;;;;;44.37;16.57;;;;;;;11.92;35.45;102426.38;5111710;27;20061;-72
2022/03/10 05:52:27;;;;;;;47.10;15.93;;;;;;;11.96;35.35;102420.34;5113536;27;20075;-72
2022/03/10 05:54:52;;;;;;;38.47;15.57;;;;;;;12.60;34.32;102416.50;5112870;27;20121;-72
2022/03/10 05:57:18;;;;;;;45.83;16.63;;;;;;;11.86;36.02;102421.09;5092492;28;20108;-72
2022/03/10 05:59:43;;;;;;;40.83;16.17;;;;;;;12.13;35.20;102417.00;5111233;27;20047;-72
2022/03/10 06:02:08;;;;;;;36.73;15.50;;;;;;;11.53;36.30;102422.50;5111413;27;20098;-72
2022/03/10 06:04:34;;;;;;;42.60;16.03;;;;;;;11.87;36.24;102415.00;5112275;27;20035;-72
2022/03/10 06:07:00;;;;;;;41.33;16.33;;;;;;;11.66;36.75;102419.16;5113405;27;20493;-72
2022/03/10 06:09:25;;;;;;;44.27;16.73;;;;;;;11.25;36.72;102411.69;5110717;27;20466;-72
2022/03/10 06:11:50;;;;;;;42.97;17.20;;;;;;;11.93;35.98;102422.91;5113079;27;20313;-72
2022/03/10 06:14:17;;;;;;;32.97;14.87;;;;;;;11.63;36.75;102418.22;5112040;27;20023;-71
2022/03/10 06:16:43;;;;;;;41.50;15.57;;;;;;;11.64;36.32;102425.22;5112551;28;20508;-72
2022/03/10 06:19:09;;;;;;;36.47;15.43;;;;;;;12.21;35.42;102417.94;5110251;27;20031;-72
2022/03/10 06:21:34;;;;;;;42.37;15.73;;;;;;;12.71;34.32;102414.81;5112475;27;20430;-72
2022/03/10 06:24:00;;;;;;;48.07;17.53;;;;;;;11.27;36.81;102423.06;5110039;27;20051;-72
2022/03/10 06:26:25;;;;;;;36.17;16.70;;;;;;;11.77;35.96;102421.00;5128938;27;20034;-72
2022/03/10 06:28:50;;;;;;;35.87;15.30;;;;;;;11.77;36.43;102415.75;5109844;27;20023;-72
2022/03/10 06:31:16;;;;;;;44.70;16.13;;;;;;;12.81;34.14;102410.50;5110017;27;20031;-72
2022/03/10 06:33:41;;;;;;;38.27;15.67;;;;;;;12.29;35.04;102413.63;5112161;27;20019;-72
2022/03/10 06:36:06;;;;;;;36.17;15.67;;;;;;;11.68;36.07;102406.94;5110825;27;20029;-72
2022/03/10 06:38:32;;;;;;;40.93;16.13;;;;;;;12.25;35.53;102414.47;5130800;27;20080;-72
2022/03/10 06:40:58;;;;;;;35.37;15.13;;;;;;;11.52;36.46;102415.50;5129138;27;20426;-72
2022/03/10 06:43:23;;;;;;;42.17;16.53;;;;;;;12.54;34.87;102411.19;5112101;27;20503;-72
2022/03/10 06:45:49;;;;;;;35.17;13.50;;;;;;;10.69;37.91;102418.78;5095955;28;20024;-72
2022/03/10 06:48:14;;;;;;;39.50;14.67;;;;;;;11.41;36.81;102412.75;5116612;28;20118;-72
2022/03/10 06:50:40;;;;;;;34.37;14.60;;;;;;;11.13;37.27;102416.78;5110375;28;20019;-72
2022/03/10 06:53:05;;;;;;;38.57;16.40;;;;;;;11.41;37.26;102417.13;5112254;28;20502;-71
2022/03/10 06:55:30;;;;;;;33.27;13.90;;;;;;;12.36;35.45;102420.72;5111939;28;20057;-72
2022/03/10 06:57:56;;;;;;;42.40;15.00;;;;;;;12.18;35.73;102417.91;5110590;28;20385;-72
2022/03/10 07:00:23;;;;;;;37.33;14.77;;;;;;;11.68;36.69;102417.41;5110652;28;20051;-72
2022/03/10 07:02:49;;;;;;;38.30;15.40;;;;;;;12.44;34.96;102419.88;5110906;28;20031;-72
2022/03/10 07:05:15;;;;;;;41.47;15.30;;;;;;;13.36;33.56;102420.41;5127052;28;20059;-72
2022/03/10 07:07:41;;;;;;;33.70;14.87;;;;;;;12.55;35.09;102428.69;5130268;27;20080;-72
2022/03/10 07:10:07;;;;;;;33.77;14.97;;;;;;;13.43;33.29;102428.31;5110581;28;20015;-72
2022/03/10 07:12:39;;;;;;;35.03;14.47;;;;;;;14.20;32.13;102431.09;5094659;28;20371;-72
2022/03/10 07:15:05;;;;;;;35.93;14.17;;;;;;;14.17;32.24;102425.84;5112099;28;20027;-72
2022/03/10 07:17:31;;;;;;;38.03;14.67;;;;;;;14.36;31.81;102432.84;5112684;27;20069;-72
2022/03/10 07:19:56;;;;;;;36.63;15.50;;;;;;;13.58;33.20;102436.25;5110807;28;20016;-71
2022/03/10 07:22:22;;;;;;;34.77;15.23;;;;;;;13.20;34.20;102434.31;5112427;28;20025;-72
2022/03/10 07:24:47;;;;;;;34.73;15.03;;;;;;;12.97;33.90;102437.72;5108593;28;20490;-72
2022/03/10 07:27:12;;;;;;;46.60;15.97;;;;;;;12.46;35.04;102449.59;5111846;28;20039;-72
2022/03/10 07:29:39;;;;;;;35.20;13.93;;;;;;;13.06;34.15;102437.78;5105424;28;20217;-72
2022/03/10 07:32:05;;;;;;;37.67;14.37;;;;;;;12.15;35.95;102444.13;5103237;28;20745;-72
2022/03/10 07:34:31;;;;;;;29.50;12.53;;;;;;;11.65;36.90;102440.97;5124841;28;20051;-72
2022/03/10 07:36:56;;;;;;;36.30;13.43;;;;;;;11.28;37.46;102443.13;5126315;28;20386;-72
2022/03/10 07:39:22;;;;;;;37.60;13.90;;;;;;;13.24;34.44;102446.59;5109898;28;20031;-72
2022/03/10 07:41:47;;;;;;;33.60;15.33;;;;;;;13.64;33.71;102445.88;5108488;28;20027;-71
2022/03/10 07:44:13;;;;;;;38.03;15.10;;;;;;;13.27;34.11;102449.25;5109762;28;20085;-72
2022/03/10 07:46:38;;;;;;;40.83;15.90;;;;;;;14.05;33.32;102448.63;5131140;27;20563;-72
2022/03/10 07:49:08;;;;;;;35.27;13.97;;;;;;;12.87;35.04;102451.63;5115476;27;20027;-72
2022/03/10 07:51:34;;;;;;;39.00;16.27;;;;;;;15.32;32.17;102437.94;5134931;27;20062;-72
2022/03/10 07:53:59;;;;;;;41.47;15.33;;;;;;;16.51;30.59;102434.47;5133010;27;20110;-72
2022/03/10 07:56:24;;;;;;;40.93;15.50;;;;;;;17.35;28.87;102434.50;5114762;27;20034;-72
2022/03/10 07:58:50;;;;;;;31.87;13.97;;;;;;;18.12;27.80;102430.75;5115774;27;20397;-72
2022/03/10 08:01:15;;;;;;;36.43;14.17;;;;;;;16.44;29.11;102438.97;5132997;27;20031;-72
2022/03/10 08:03:41;;;;;;;36.63;14.90;;;;;;;15.75;30.80;102437.69;5134422;27;20031;-72
2022/03/10 08:06:07;;;;;;;37.03;15.60;;;;;;;13.30;35.24;102445.72;5133886;27;20027;-72
2022/03/10 08:08:32;;;;;;;34.60;13.13;;;;;;;12.70;36.32;102446.28;5114645;27;20046;-72
2022/03/10 08:10:58;;;;;;;33.47;14.70;;;;;;;14.04;33.93;102445.97;5114181;27;20470;-72
2022/03/10 08:13:26;;;;;;;37.10;15.67;;;;;;;13.63;35.04;102442.41;5122897;27;20110;-72
2022/03/10 08:15:53;;;;;;;37.47;16.60;;;;;;;13.12;35.56;102451.78;5110341;28;20023;-72
2022/03/10 08:18:19;;;;;;;35.80;13.93;;;;;;;12.39;36.70;102454.81;5105249;27;20367;-71
2022/03/10 08:20:44;;;;;;;35.73;15.37;;;;;;;12.96;35.62;102445.59;5129589;27;20131;-72
2022/03/10 08:23:09;;;;;;;35.13;15.30;;;;;;;14.40;33.42;102442.47;5114832;27;20039;-72
2022/03/10 08:25:38;;;;;;;32.20;14.07;;;;;;;13.11;35.24;102440.41;5115915;27;20050;-72
2022/03/10 08:28:05;;;;;;;29.00;11.77;;;;;;;12.46;36.84;102444.34;5132653;27;20027;-72
2022/03/10 08:30:31;;;;;;;35.47;14.03;;;;;;;14.45;33.57;102436.34;5114868;27;20027;-72
2022/03/10 08:32:57;;;;;;;41.03;14.60;;;;;;;14.19;33.86;102427.59;5115845;27;20360;-72
2022/03/10 08:35:23;;;;;;;32.50;13.53;;;;;;;13.87;34.40;102438.06;5133386;27;20034;-72
2022/03/10 08:37:49;;;;;;;38.63;16.43;;;;;;;12.94;36.69;102439.44;5133311;27;20031;-71
2022/03/10 08:40:19;;;;;;;38.37;15.60;;;;;;;13.62;35.39;102438.00;5130235;27;20079;-72
2022/03/10 08:42:46;;;;;;;40.00;15.43;;;;;;;13.68;35.80;102437.16;5115231;27;20450;-72
2022/03/10 08:45:11;;;;;;;38.17;14.67;;;;;;;13.83;35.85;102433.69;5133109;27;20168;-72
2022/03/10 08:47:37;;;;;;;34.03;15.87;;;;;;;14.15;35.21;102433.72;5115408;27;20071;-72
2022/03/10 08:50:03;;;;;;;35.83;15.50;;;;;;;15.06;33.59;102417.81;5131023;27;20089;-72
2022/03/10 08:52:28;;;;;;;32.33;13.97;;;;;;;13.57;36.41;102424.88;5132272;27;20139;-72
2022/03/10 08:54:54;;;;;;;36.90;14.33;;;;;;;13.73;35.92;102431.03;5132994;27;20026;-71
2022/03/10 08:57:19;;;;;;;34.73;13.63;;;;;;;13.43;36.83;102425.69;5106618;27;20048;-72
2022/03/10 08:59:45;;;;;;;38.00;15.20;;;;;;;15.07;34.16;102422.22;5132350;27;20019;-72
2022/03/10 09:02:12;;;;;;;31.93;14.30;;;;;;;14.56;34.21;102422.31;5132680;27;20027;-72
2022/03/10 09:04:37;;;;;;;39.37;15.00;;;;;;;16.05;32.06;102414.66;5113874;27;20011;-72
2022/03/10 09:07:03;;;;;;;33.80;16.13;;;;;;;16.36;31.68;102418.81;5114544;27;20481;-71
2022/03/10 09:09:28;;;;;;;35.90;16.00;;;;;;;14.48;34.64;102410.91;5114023;27;20034;-72
2022/03/10 09:11:54;;;;;;;34.17;14.93;;;;;;;15.81;32.54;102409.56;5093456;28;20111;-72
2022/03/10 09:14:20;;;;;;;30.90;14.70;;;;;;;15.99;32.45;102408.56;5111927;27;20073;-72
2022/03/10 09:16:45;;;;;;;37.23;14.73;;;;;;;16.64;31.30;102408.88;5132800;27;20661;-72
2022/03/10 09:19:11;;;;;;;35.77;15.47;;;;;;;17.05;31.02;102407.56;5131255;27;20031;-72
2022/03/10 09:21:36;;;;;;;39.10;15.60;;;;;;;17.55;30.39;102406.91;5131556;27;20046;-72
2022/03/10 09:24:02;;;;;;;34.70;15.93;;;;;;;17.45;30.44;102406.16;5113753;27;20039;-72
2022/03/10 09:26:27;;;;;;;35.00;15.93;;;;;;;19.69;27.28;102383.50;5113948;27;20059;-72
2022/03/10 09:28:53;;;;;;;36.33;16.47;;;;;;;19.64;27.00;102377.44;5113440;27;20022;-72
2022/03/10 09:31:18;;;;;;;34.80;15.63;;;;;;;19.63;26.70;102380.97;5113229;27;20113;-72
2022/03/10 09:33:45;;;;;;;32.33;14.97;;;;;;;20.98;25.16;102376.59;5113960;27;20106;-72
2022/03/10 09:36:11;;;;;;;30.50;15.23;;;;;;;21.52;24.29;102382.97;5131591;27;20389;-72
2022/03/10 09:38:36;;;;;;;32.50;15.52;;;;;;;20.38;25.56;102386.22;5112547;27;20102;-72
2022/03/10 09:41:02;;;;;;;33.38;15.77;;;;;;;21.63;24.34;102379.97;5108148;27;20027;-72
2022/03/10 09:43:30;;;;;;;33.17;16.45;;;;;;;23.00;22.96;102373.47;5113200;27;20039;-72
2022/03/10 09:45:55;;;;;;;37.38;16.38;;;;;;;22.87;23.47;102365.94;5131209;27;20022;-72
2022/03/10 09:48:21;;;;;;;33.45;15.30;;;;;;;22.58;23.43;102374.13;5113869;27;20402;-72
2022/03/10 09:50:47;;;;;;;35.45;16.50;;;;;;;23.22;22.80;102365.53;5124326;27;20036;-72
2022/03/10 09:53:13;;;;;;;32.95;15.50;;;;;;;22.81;22.77;102376.81;5112413;27;20059;-72
2022/03/10 09:55:38;;;;;;;34.28;16.27;;;;;;;24.74;21.23;102373.41;5113454;27;20081;-72
2022/03/10 09:58:07;;;;;;;30.35;14.73;;;;;;;22.33;23.37;102367.84;5104938;27;20031;-72
2022/03/10 10:00:33;;;;;;;31.42;15.75;;;;;;;24.12;22.24;102370.75;5111125;27;20076;-72
2022/03/10 10:02:58;;;;;;;29.77;14.52;;;;;;;23.18;22.67;102377.25;5112339;27;20027;-72
2022/03/10 10:05:25;;;;;;;30.55;15.88;;;;;;;24.73;21.36;102374.38;5131378;27;20466;-72
2022/03/10 10:08:06;;;;;;;30.20;14.77;;;;;;;25.26;21.45;102369.25;5104380;27;20041;-72
2022/03/10 10:10:33;;;;;;;33.40;15.65;;;;;;;24.04;21.75;102370.22;5113095;27;20398;-72
2022/03/10 10:13:04;;;;;;;28.05;15.10;;;;;;;24.16;22.21;102375.03;5113861;27;20034;-72
2022/03/10 10:15:40;;;;;;;27.88;14.63;;;;;;;24.24;22.20;102365.84;5112042;27;20096;-72
2022/03/10 10:18:13;;;;;;;26.65;15.13;;;;;;;23.94;22.63;102374.22;5103513;27;20426;-72
2022/03/10 10:20:48;;;;;;;31.70;16.70;;;;;;;23.82;22.83;102370.22;5111862;27;20125;-72
2022/03/10 10:23:25;;;;;;;28.45;15.45;;;;;;;23.69;23.05;102364.53;5111093;27;20035;-72
2022/03/10 10:25:58;;;;;;;28.63;15.55;;;;;;;23.45;23.78;102364.63;5109859;27;20066;-72
2022/03/10 10:28:27;;;;;;;27.80;15.02;;;;;;;24.88;21.85;102352.25;5111499;27;20019;-72
2022/03/10 10:30:59;;;;;;;28.85;16.05;;;;;;;24.60;22.16;102362.47;5124317;27;20036;-72
2022/03/10 10:33:26;;;;;;;28.80;14.65;;;;;;;23.14;23.34;102357.81;5102487;27;20030;-72
2022/03/10 10:36:16;;;;;;;30.65;15.40;;;;;;;24.43;22.22;102356.06;5108359;27;20126;-72
2022/03/10 10:38:44;;;;;;;31.27;15.52;;;;;;;23.93;23.17;102351.97;5129876;27;20035;-72
2022/03/10 10:41:22;;;;;;;28.42;14.30;;;;;;;24.59;22.08;102355.38;5128312;27;20023;-72
2022/03/10 10:43:51;;;;;;;29.35;15.50;;;;;;;24.77;22.74;102349.22;5130883;27;20401;-72
2022/03/10 10:46:24;;;;;;;28.13;15.25;;;;;;;24.65;22.29;102347.13;5093905;27;20399;-72
2022/03/10 10:48:49;;;;;;;29.23;15.18;;;;;;;26.86;20.30;102347.69;5112155;28;20102;-72
2022/03/10 10:51:25;;;;;;;32.95;15.90;;;;;;;24.63;22.58;102352.50;5111790;28;20126;-72
2022/03/10 10:53:50;;;;;;;35.20;17.65;;;;;;;24.58;22.91;102348.28;5103332;28;20552;-72
2022/03/10 10:56:16;;;;;;;34.40;15.52;;;;;;;25.88;21.50;102353.72;5110549;28;20055;-72
2022/03/10 10:58:45;;;;;;;31.27;15.13;;;;;;;26.45;20.77;102337.38;5112162;28;20466;-72
2022/03/10 11:01:26;;;;;;;31.10;15.10;;;;;;;26.53;20.91;102345.88;5121031;28;20101;-72
2022/03/10 11:03:52;;;;;;;28.70;14.70;;;;;;;26.52;20.78;102330.72;5112089;28;20027;-71
2022/03/10 11:06:18;;;;;;;29.55;15.63;;;;;;;26.28;21.13;102332.03;5111235;28;20065;-72
2022/03/10 11:08:43;;;;;;;31.65;15.80;;;;;;;24.01;23.02;102332.97;5112844;28;20482;-72
2022/03/10 11:11:10;;;;;;;30.95;16.10;;;;;;;25.21;22.57;102321.28;5110496;28;20371;-72